»·PEaware :: AAL576 KSFO-KPHX

AAL576 :: KSFO-KPHX

FLIGHT INFORMATION

Flight Status: Arrived
Operator:
American Airlines
More flights by this operator :: More flights under this callsign
Pilot: Anonymous 8274 (8274)
Aircraft: BOEING 727-100
(B721)
More flights by this aircraft type
Origin: KSFO San Francisco Intl
United States
Destination: KPHX Phoenix Sky Harbor Intl
United States
More flights between these airports :: More routes between these airports
Route: SFO4 LIN J84 BABIT J92 BTY J86 BLD COYOT4
File this flight plan on PilotEdge
Remarks:
Altitude:
(Current/Filed)
29,000ft
Speed:
(Current/Filed)
460kts
Departed: 12-Aug-18 07:19 PM
Arrived: 12-Aug-18 08:56 PM
Distance/Time
Traveled:
565nm/1:37
Distance/Time
To Go:
Arrived

Flight Plot

Page will automatically refresh every two minutes.

Flight plan parsing failed; only flown route is shown


Map Options




Map Legend


Flown Route
Filed Route
Departure Airport
Arrival Airport
Navaid (VOR, NDB)
Fix

Horizontal Profiles

Position Reports

Time Latitude Longitude Heading Altitude Ground
Speed
12-Aug-18 18:43 37.618674 -122.388063 158 24ft 0kts
12-Aug-18 18:44 37.618674 -122.388063 158 24ft 0kts
12-Aug-18 18:45 37.618674 -122.388063 158 24ft 0kts
12-Aug-18 18:46 37.618674 -122.388063 158 24ft 0kts
12-Aug-18 18:47 37.618674 -122.388063 158 24ft 0kts
12-Aug-18 18:48 37.618674 -122.388063 158 24ft 0kts
12-Aug-18 18:49 37.618674 -122.388063 158 24ft 0kts
12-Aug-18 18:50 37.618674 -122.388063 158 24ft 0kts
12-Aug-18 18:51 37.618674 -122.388063 158 24ft 0kts
12-Aug-18 18:52 37.618674 -122.388063 158 24ft 0kts
12-Aug-18 18:53 37.618674 -122.388063 158 24ft 0kts
12-Aug-18 18:54 37.618674 -122.388063 158 24ft 0kts
12-Aug-18 18:55 37.618674 -122.388063 158 24ft 0kts
12-Aug-18 18:56 37.618674 -122.388063 158 24ft 0kts
12-Aug-18 18:57 37.619054 -122.388254 158 24ft 1kts
12-Aug-18 18:58 37.619137 -122.388799 33 24ft 2kts
12-Aug-18 18:59 37.618861 -122.388809 338 24ft 0kts
12-Aug-18 19:00 37.618861 -122.388809 338 24ft 0kts
12-Aug-18 19:01 37.618861 -122.388809 338 24ft 0kts
12-Aug-18 19:02 37.618861 -122.388809 338 24ft 0kts
12-Aug-18 19:03 37.618861 -122.388809 338 24ft 0kts
12-Aug-18 19:04 37.618861 -122.388809 338 24ft 0kts
12-Aug-18 19:05 37.618861 -122.388809 338 24ft 0kts
12-Aug-18 19:06 37.618861 -122.388809 338 24ft 0kts
12-Aug-18 19:07 37.618861 -122.388809 338 24ft 0kts
12-Aug-18 19:08 37.618861 -122.388809 338 24ft 0kts
12-Aug-18 19:09 37.619032 -122.388954 315 24ft 8kts
12-Aug-18 19:10 37.620037 -122.391295 299 24ft 0kts
12-Aug-18 19:11 37.620054 -122.391334 299 24ft 2kts
12-Aug-18 19:12 37.622563 -122.389784 72 24ft 20kts
12-Aug-18 19:13 37.619894 -122.382733 118 24ft 24kts
12-Aug-18 19:14 37.613642 -122.381613 208 24ft 32kts
12-Aug-18 19:15 37.608501 -122.383953 117 24ft 0kts
12-Aug-18 19:16 37.608501 -122.383953 117 24ft 0kts
12-Aug-18 19:17 37.608501 -122.383953 117 24ft 0kts
12-Aug-18 19:18 37.608501 -122.383953 117 24ft 0kts
12-Aug-18 19:19 37.608337 -122.382655 44 24ft 10kts
12-Aug-18 19:20 37.630120 -122.367786 22 620ft 157kts
12-Aug-18 19:21 37.664049 -122.325747 47 2980ft 186kts
12-Aug-18 19:22 37.703074 -122.271036 46 5242ft 252kts
12-Aug-18 19:23 37.756519 -122.199406 46 8423ft 289kts
12-Aug-18 19:24 37.800917 -122.115137 74 11521ft 304kts
12-Aug-18 19:25 37.832693 -122.009863 68 13420ft 353kts
12-Aug-18 19:26 37.870086 -121.893329 71 16097ft 366kts
12-Aug-18 19:27 37.898331 -121.767032 75 18366ft 380kts
12-Aug-18 19:28 37.927327 -121.635796 75 20391ft 394kts
12-Aug-18 19:29 37.957207 -121.500245 75 22207ft 406kts
12-Aug-18 19:30 37.987654 -121.361486 75 23817ft 417kts
12-Aug-18 19:31 38.021167 -121.219411 73 25216ft 428kts
12-Aug-18 19:32 38.057045 -121.074120 73 26514ft 436kts
12-Aug-18 19:33 38.091380 -120.925653 76 27651ft 444kts
12-Aug-18 19:34 38.116040 -120.777070 77 28668ft 450kts
12-Aug-18 19:35 38.146701 -120.619869 78 28976ft 474kts
12-Aug-18 19:36 38.175788 -120.452136 78 29028ft 500kts
12-Aug-18 19:37 38.205262 -120.281475 78 29022ft 521kts
12-Aug-18 19:38 38.236250 -120.101907 78 29019ft 520kts
12-Aug-18 19:39 38.267077 -119.923003 78 29075ft 518kts
12-Aug-18 19:40 38.297686 -119.745426 78 29255ft 514kts
12-Aug-18 19:41 38.328332 -119.567692 77 29265ft 514kts
12-Aug-18 19:42 38.359012 -119.389602 78 29266ft 515kts
12-Aug-18 19:43 38.388964 -119.215845 78 29263ft 516kts
12-Aug-18 19:44 38.419524 -119.037726 79 29262ft 516kts
12-Aug-18 19:45 38.444266 -118.858032 82 29265ft 515kts
12-Aug-18 19:46 38.463382 -118.676971 82 29265ft 516kts
12-Aug-18 19:47 38.486054 -118.496553 79 29174ft 518kts
12-Aug-18 19:48 38.492915 -118.322379 111 29025ft 513kts
12-Aug-18 19:49 38.407087 -118.185061 146 29019ft 497kts
12-Aug-18 19:50 38.295938 -118.081552 148 29195ft 492kts
12-Aug-18 19:51 38.181352 -117.990672 141 29213ft 492kts
12-Aug-18 19:52 38.085104 -117.867019 133 29211ft 496kts
12-Aug-18 19:53 37.988419 -117.744156 144 29214ft 491kts
12-Aug-18 19:54 37.879567 -117.655200 150 29213ft 490kts
12-Aug-18 19:55 37.762690 -117.567774 149 29210ft 492kts
12-Aug-18 19:56 37.651279 -117.467262 147 29214ft 494kts
12-Aug-18 19:57 37.537910 -117.369261 147 29219ft 496kts
12-Aug-18 19:58 37.427890 -117.278398 148 29210ft 493kts
12-Aug-18 19:59 37.311843 -117.188964 148 29209ft 489kts
12-Aug-18 20:00 37.198268 -117.099457 144 29207ft 478kts
12-Aug-18 20:01 37.091764 -117.003773 141 29204ft 468kts
12-Aug-18 20:02 36.989562 -116.906086 142 29050ft 463kts
12-Aug-18 20:03 36.891486 -116.816219 144 28991ft 458kts
12-Aug-18 20:04 36.787577 -116.726116 137 28981ft 455kts
12-Aug-18 20:05 36.705358 -116.607312 132 28994ft 452kts
12-Aug-18 20:06 36.624871 -116.488358 130 28992ft 450kts
12-Aug-18 20:07 36.540200 -116.375026 131 28992ft 449kts
12-Aug-18 20:08 36.460458 -116.264551 131 28995ft 449kts
12-Aug-18 20:09 36.377197 -116.149362 131 28994ft 450kts
12-Aug-18 20:10 36.293780 -116.034127 131 28994ft 450kts
12-Aug-18 20:11 36.212473 -115.916901 128 28993ft 449kts
12-Aug-18 20:12 36.173824 -115.773721 101 29006ft 447kts
12-Aug-18 20:13 36.150654 -115.622129 101 28937ft 448kts
12-Aug-18 20:14 36.127712 -115.471416 101 28937ft 448kts
12-Aug-18 20:15 36.096852 -115.327701 106 28940ft 447kts
12-Aug-18 20:16 36.059373 -115.181689 110 28940ft 448kts
12-Aug-18 20:17 36.029289 -115.032629 103 28939ft 449kts
12-Aug-18 20:18 36.002013 -114.882054 103 28912ft 451kts
12-Aug-18 20:19 35.947077 -114.747926 132 28944ft 448kts
12-Aug-18 20:20 35.899480 -114.682032 120 28927ft 448kts
12-Aug-18 20:21 35.838404 -114.549952 120 28940ft 448kts
12-Aug-18 20:22 35.762265 -114.428797 126 28934ft 448kts
12-Aug-18 20:23 35.697729 -114.300907 123 28941ft 448kts
12-Aug-18 20:24 35.629178 -114.172931 123 28959ft 450kts
12-Aug-18 20:25 35.560545 -114.045305 123 29102ft 449kts
12-Aug-18 20:26 35.491532 -113.917081 123 29102ft 451kts
12-Aug-18 20:27 35.422136 -113.788612 123 29101ft 453kts
12-Aug-18 20:28 35.352444 -113.660072 123 29100ft 455kts
12-Aug-18 20:29 35.282187 -113.530969 123 29100ft 456kts
12-Aug-18 20:30 35.211861 -113.402205 123 29099ft 456kts
12-Aug-18 20:31 35.142788 -113.276590 123 29102ft 457kts
12-Aug-18 20:32 35.069183 -113.149956 124 29101ft 457kts
12-Aug-18 20:33 34.996945 -113.023523 124 29101ft 458kts
12-Aug-18 20:34 34.924483 -112.896441 124 29207ft 456kts
12-Aug-18 20:35 34.858241 -112.780095 124 29211ft 457kts
12-Aug-18 20:36 34.791399 -112.649716 120 29209ft 453kts
12-Aug-18 20:37 34.731320 -112.525230 120 27894ft 419kts
12-Aug-18 20:38 34.653538 -112.429280 147 25925ft 401kts
12-Aug-18 20:39 34.571412 -112.349924 137 23704ft 370kts
12-Aug-18 20:40 34.499276 -112.262028 136 20078ft 385kts
12-Aug-18 20:41 34.404423 -112.209522 165 17349ft 381kts
12-Aug-18 20:42 34.303399 -112.182928 167 15132ft 367kts
12-Aug-18 20:43 34.206124 -112.161018 170 13204ft 342kts
12-Aug-18 20:44 34.118329 -112.143672 170 13076ft 308kts
12-Aug-18 20:45 34.038065 -112.127855 170 12946ft 291kts
12-Aug-18 20:46 33.956820 -112.111832 170 12986ft 300kts
12-Aug-18 20:47 33.875312 -112.121840 191 10988ft 326kts
12-Aug-18 20:48 33.787598 -112.145168 192 9406ft 325kts
12-Aug-18 20:49 33.703688 -112.169032 192 7886ft 297kts
12-Aug-18 20:50 33.627065 -112.190451 192 6378ft 273kts
12-Aug-18 20:51 33.554830 -112.207144 192 4853ft 258kts
12-Aug-18 20:52 33.487308 -112.215870 161 3371ft 239kts
12-Aug-18 20:53 33.434749 -112.183107 98 2977ft 199kts
12-Aug-18 20:54 33.440800 -112.122185 87 2686ft 174kts
12-Aug-18 20:55 33.440903 -112.072735 89 1750ft 122kts
12-Aug-18 20:56 33.440856 -112.031380 88 1229ft 122kts
12-Aug-18 20:57 33.440656 -112.005139 116 1121ft 25kts
12-Aug-18 20:58 33.439887 -112.004070 135 1121ft 0kts
12-Aug-18 20:59 33.439726 -112.003964 163 1121ft 8kts
12-Aug-18 21:00 33.437492 -112.000734 180 1121ft 16kts
12-Aug-18 21:01 33.436844 -112.001268 270 1121ft 0kts

Navigation Log

Ident Type
Flight plan parsing failed, navigation log unavailable